Time;durP1;ratioP1;P1;durP2;ratioP2;P2;SDS_P1;SDS_P2;PMS_P1;PMS_P2;Temp;Humidity;BMP_temperature;BMP_pressure;BME280_temperature;BME280_humidity;BME280_pressure;Samples;Min_cycle;Max_cycle;Signal;HPM_P1;HPM_P2
2022/08/17 00:00:04;;;;;;;6.75;3.92;;;;;;;26.79;41.88;98941.66;4463124;32;32642;-60
2022/08/17 00:03:16;;;;;;;6.62;4.40;;;;;;;26.77;41.95;98946.53;4458702;32;34918;-60
2022/08/17 00:05:54;;;;;;;8.63;4.60;;;;;;;26.76;41.99;98934.72;4458909;32;32978;-60
2022/08/17 00:08:24;;;;;;;6.90;4.55;;;;;;;26.81;41.93;98939.50;4465425;32;33979;-60
2022/08/17 00:10:53;;;;;;;7.50;4.72;;;;;;;26.78;41.88;98934.50;4458188;32;33712;-61
2022/08/17 00:13:31;;;;;;;7.22;4.65;;;;;;;26.81;41.73;98934.84;4453070;32;32512;-60
2022/08/17 00:16:06;;;;;;;7.60;5.10;;;;;;;26.75;41.89;98940.47;4462056;32;34522;-60
2022/08/17 00:18:34;;;;;;;6.40;4.20;;;;;;;26.78;41.66;98937.25;4467094;32;33827;-60
2022/08/17 00:21:22;;;;;;;7.60;4.50;;;;;;;26.67;41.95;98936.97;4464842;32;34622;-60
2022/08/17 00:23:52;;;;;;;7.05;4.07;;;;;;;26.69;41.97;98931.28;4462666;32;33613;-60
2022/08/17 00:26:20;;;;;;;7.28;4.22;;;;;;;26.63;42.21;98935.78;4454078;32;33325;-60
2022/08/17 00:29:08;;;;;;;8.75;4.10;;;;;;;26.62;42.35;98936.88;4452062;32;33623;-61
2022/08/17 00:31:46;;;;;;;6.90;4.80;;;;;;;26.59;42.45;98931.88;4454609;32;33856;-60
2022/08/17 00:34:14;;;;;;;6.43;4.18;;;;;;;26.64;42.63;98939.38;4456991;32;34080;-60
2022/08/17 00:36:41;;;;;;;6.90;3.83;;;;;;;26.33;43.97;98935.03;4459965;32;34150;-60
2022/08/17 00:39:09;;;;;;;8.52;4.43;;;;;;;26.13;44.27;98930.72;4459907;32;33825;-60
2022/08/17 00:41:36;;;;;;;7.45;5.28;;;;;;;26.00;44.55;98944.63;4461756;32;33884;-60
2022/08/17 00:44:10;;;;;;;6.97;4.93;;;;;;;25.97;44.26;98942.34;4458245;32;33957;-60
2022/08/17 00:46:41;;;;;;;9.45;5.03;;;;;;;25.53;45.15;98945.25;4456077;32;35852;-59
2022/08/17 00:49:10;;;;;;;7.45;4.85;;;;;;;25.68;44.59;98944.00;4453876;32;32287;-60
2022/08/17 00:51:43;;;;;;;7.80;4.47;;;;;;;25.75;44.33;98942.84;4446619;32;33837;-60
2022/08/17 00:54:25;;;;;;;6.78;3.80;;;;;;;25.91;43.86;98943.31;4448620;32;34057;-60
2022/08/17 00:57:01;;;;;;;5.87;4.37;;;;;;;25.91;43.86;98946.88;4444926;32;33143;-60
2022/08/17 00:59:36;;;;;;;6.57;3.80;;;;;;;25.94;43.74;98945.53;4454994;32;34620;-61
2022/08/17 01:02:05;;;;;;;6.22;3.80;;;;;;;26.07;43.29;98948.13;4462624;32;32969;-60
2022/08/17 01:04:33;;;;;;;8.40;4.30;;;;;;;26.04;43.24;98945.00;4438549;32;35152;-60
2022/08/17 01:07:03;;;;;;;6.82;4.07;;;;;;;26.15;43.06;98945.00;4458891;32;34636;-60
2022/08/17 01:09:31;;;;;;;6.50;4.57;;;;;;;26.09;43.16;98950.59;4442842;32;33593;-61
2022/08/17 01:11:59;;;;;;;7.35;4.55;;;;;;;26.07;43.32;98955.47;4437199;32;33963;-60
2022/08/17 01:14:26;;;;;;;7.47;5.00;;;;;;;26.17;43.01;98950.28;4456846;32;33854;-60
2022/08/17 01:16:54;;;;;;;14.30;4.90;;;;;;;25.98;43.46;98963.22;4460134;32;32390;-62
2022/08/17 01:19:28;;;;;;;10.25;4.93;;;;;;;26.05;43.32;98960.38;4441829;32;33859;-60
2022/08/17 01:22:02;;;;;;;8.60;4.95;;;;;;;26.09;43.35;98965.16;4438032;32;34682;-61
2022/08/17 01:24:31;;;;;;;7.03;4.72;;;;;;;26.12;43.34;98967.41;4452519;32;34805;-61
2022/08/17 01:27:01;;;;;;;6.37;4.25;;;;;;;26.01;43.66;98968.25;4459679;32;34755;-61
2022/08/17 01:29:30;;;;;;;6.87;4.43;;;;;;;26.07;43.49;98956.34;4436245;32;33518;-61
2022/08/17 01:32:01;;;;;;;6.97;4.40;;;;;;;26.06;43.54;98971.09;4444370;32;34167;-61
2022/08/17 01:34:29;;;;;;;7.55;4.97;;;;;;;26.15;43.39;98963.38;4438824;32;34995;-62
2022/08/17 01:37:12;;;;;;;7.65;4.80;;;;;;;25.98;43.78;98964.06;4443379;32;34652;-60
2022/08/17 01:39:53;;;;;;;8.68;5.47;;;;;;;25.86;44.08;98954.13;4447586;32;34949;-61
2022/08/17 01:42:39;;;;;;;9.55;4.95;;;;;;;25.84;44.27;98961.72;4443772;32;32707;-62
2022/08/17 01:45:16;;;;;;;8.90;4.72;;;;;;;25.90;44.10;98974.50;4444410;32;35196;-62
2022/08/17 01:47:44;;;;;;;6.55;4.18;;;;;;;25.95;43.96;98966.44;4445137;32;32109;-62
2022/08/17 01:50:16;;;;;;;10.85;4.97;;;;;;;26.00;43.82;98964.66;4444580;32;33882;-62
2022/08/17 01:52:44;;;;;;;8.70;5.12;;;;;;;25.93;44.05;98974.03;4450580;32;32724;-62
2022/08/17 01:55:15;;;;;;;8.38;5.25;;;;;;;26.02;43.81;98972.66;4448624;32;34129;-62
2022/08/17 01:57:44;;;;;;;7.07;5.05;;;;;;;26.04;43.74;98966.94;4437182;32;33435;-62
2022/08/17 02:00:13;;;;;;;9.40;5.00;;;;;;;25.97;43.89;98965.13;4448465;32;34938;-62
2022/08/17 02:02:41;;;;;;;5.90;4.15;;;;;;;25.97;43.97;98962.41;4447771;32;34825;-62
2022/08/17 02:05:09;;;;;;;7.90;5.35;;;;;;;25.98;43.92;98963.22;4441601;32;33986;-62
2022/08/17 02:07:37;;;;;;;7.50;4.60;;;;;;;25.91;44.10;98963.31;4442646;32;33549;-63
2022/08/17 02:10:26;;;;;;;8.23;5.07;;;;;;;25.93;44.09;98960.34;4440639;32;33969;-62
2022/08/17 02:13:02;;;;;;;7.95;4.90;;;;;;;25.98;43.99;98964.06;4446388;32;33980;-62
2022/08/17 02:15:30;;;;;;;9.55;5.20;;;;;;;25.96;44.03;98965.34;4440804;32;33750;-63
2022/08/17 02:17:58;;;;;;;8.18;5.20;;;;;;;25.85;44.19;98957.94;4452224;32;34532;-62
2022/08/17 02:20:26;;;;;;;7.70;4.97;;;;;;;25.81;44.25;98956.72;4449272;32;34888;-62
2022/08/17 02:23:10;;;;;;;7.57;4.95;;;;;;;25.76;44.18;98955.47;4443205;32;33959;-62
2022/08/17 02:25:39;;;;;;;8.35;5.03;;;;;;;25.70;44.20;98950.94;4443019;32;33611;-61
2022/08/17 02:28:06;;;;;;;8.90;5.22;;;;;;;25.75;44.16;98944.75;4450594;32;33380;-61
2022/08/17 02:30:34;;;;;;;7.57;5.03;;;;;;;25.71;44.18;98949.84;4446952;32;34690;-61
2022/08/17 02:33:22;;;;;;;9.35;5.40;;;;;;;25.72;44.19;98948.81;4449001;32;35061;-62
2022/08/17 02:36:10;;;;;;;10.25;5.07;;;;;;;25.74;44.42;98954.03;4444796;32;34876;-62
2022/08/17 02:38:39;;;;;;;8.18;5.18;;;;;;;25.58;44.80;98965.63;4447110;32;33402;-62
2022/08/17 02:41:07;;;;;;;8.13;4.87;;;;;;;25.79;44.18;98959.66;4448978;32;33967;-63
2022/08/17 02:43:34;;;;;;;9.40;4.40;;;;;;;25.81;44.13;98954.84;4443776;32;34060;-62
2022/08/17 02:46:02;;;;;;;8.88;5.70;;;;;;;25.76;44.27;98958.22;4451654;32;35284;-62
2022/08/17 02:48:30;;;;;;;7.47;5.22;;;;;;;25.74;44.32;98951.28;4447023;32;34345;-63
2022/08/17 02:50:59;;;;;;;9.45;4.87;;;;;;;25.71;44.39;98955.31;4451494;32;35038;-62
2022/08/17 02:53:27;;;;;;;9.20;5.57;;;;;;;25.71;44.48;98951.75;4442882;32;35060;-62
2022/08/17 02:56:03;;;;;;;7.07;4.50;;;;;;;25.70;44.55;98944.59;4441903;32;34041;-63
2022/08/17 02:58:30;;;;;;;9.40;6.12;;;;;;;25.72;44.55;98953.44;4447597;32;34494;-61
2022/08/17 03:01:08;;;;;;;8.23;4.87;;;;;;;25.50;45.25;98958.59;4452558;32;32492;-61
2022/08/17 03:03:36;;;;;;;7.87;5.10;;;;;;;25.56;45.56;98960.41;4448373;32;32820;-62
2022/08/17 03:06:06;;;;;;;7.35;4.87;;;;;;;25.42;45.61;98962.47;4448726;32;33067;-61
2022/08/17 03:08:35;;;;;;;9.13;6.03;;;;;;;25.48;45.73;98964.28;4446397;32;33668;-61
2022/08/17 03:11:03;;;;;;;8.80;6.00;;;;;;;25.40;46.23;98961.03;4448455;32;33718;-61
2022/08/17 03:13:30;;;;;;;7.68;5.05;;;;;;;25.33;46.51;98961.94;4451313;32;33989;-61
2022/08/17 03:15:58;;;;;;;8.30;5.50;;;;;;;25.30;46.67;98965.16;4447425;32;33910;-63
2022/08/17 03:18:26;;;;;;;6.82;5.05;;;;;;;25.16;47.16;98971.00;4449540;32;34789;-63
2022/08/17 03:20:58;;;;;;;10.23;5.00;;;;;;;25.08;47.28;98964.75;4449332;32;33728;-64
2022/08/17 03:23:26;;;;;;;8.98;5.93;;;;;;;24.99;46.77;98968.00;4450296;32;35140;-64
2022/08/17 03:25:57;;;;;;;10.82;5.60;;;;;;;24.94;46.58;98976.03;4446796;32;34116;-62
2022/08/17 03:28:25;;;;;;;8.23;6.03;;;;;;;24.96;46.31;98971.19;4450270;32;34395;-62
2022/08/17 03:30:53;;;;;;;8.43;6.22;;;;;;;24.89;46.71;98971.25;4451630;32;34707;-62
2022/08/17 03:33:21;;;;;;;8.88;6.28;;;;;;;24.90;47.16;98972.09;4460418;32;36279;-63
2022/08/17 03:35:49;;;;;;;12.35;5.78;;;;;;;24.94;47.09;98970.56;4455924;32;33819;-62
2022/08/17 03:38:17;;;;;;;8.18;4.85;;;;;;;24.93;46.65;98971.66;4455783;32;34713;-62
2022/08/17 03:40:46;;;;;;;10.07;5.65;;;;;;;24.99;46.13;98966.09;4461545;32;35023;-63
2022/08/17 03:43:30;;;;;;;6.30;4.55;;;;;;;24.99;46.22;98976.22;4451649;32;33917;-62
2022/08/17 03:57:27;;;;;;;7.57;5.55;;;;;;;25.05;46.24;98978.88;4453627;32;32704;-60
2022/08/17 03:59:55;;;;;;;9.50;5.85;;;;;;;25.04;46.33;98990.91;4454204;32;34704;-61
2022/08/17 04:02:27;;;;;;;7.90;4.87;;;;;;;25.18;46.11;98991.62;4451786;32;32532;-61
2022/08/17 04:04:55;;;;;;;6.68;4.37;;;;;;;25.20;46.14;98985.91;4439464;32;34150;-61
2022/08/17 04:07:26;;;;;;;7.62;5.30;;;;;;;25.32;45.75;98978.59;4455699;32;34928;-61
2022/08/17 04:09:54;;;;;;;8.80;6.30;;;;;;;25.36;45.63;98981.72;4447461;32;34769;-61
2022/08/17 04:12:23;;;;;;;11.70;6.30;;;;;;;25.22;45.79;98981.88;4455877;32;33941;-61
2022/08/17 04:14:50;;;;;;;7.85;5.93;;;;;;;25.26;45.41;98988.56;4451069;32;34004;-61
2022/08/17 04:17:25;;;;;;;10.60;6.53;;;;;;;25.01;46.09;98991.34;4450484;32;33890;-61
2022/08/17 04:19:53;;;;;;;9.27;5.45;;;;;;;24.97;46.16;98987.37;4453361;32;33601;-61
2022/08/17 04:22:21;;;;;;;11.07;6.82;;;;;;;25.06;45.86;98993.41;4452121;32;32577;-60
2022/08/17 04:25:15;;;;;;;9.40;6.30;;;;;;;25.09;45.66;98993.78;4451394;32;35051;-60
2022/08/17 04:27:43;;;;;;;11.00;6.28;;;;;;;25.20;45.44;99002.34;4456998;32;33012;-61
2022/08/17 04:30:11;;;;;;;8.20;5.85;;;;;;;25.20;45.66;99002.34;4450590;32;33212;-61
2022/08/17 04:32:58;;;;;;;13.60;6.00;;;;;;;25.24;45.66;98996.19;4447561;32;34520;-62
2022/08/17 04:35:38;;;;;;;9.50;6.53;;;;;;;25.27;45.68;99006.69;4458151;32;35120;-61
2022/08/17 04:38:08;;;;;;;9.90;6.53;;;;;;;25.31;45.62;99001.59;4458939;32;32807;-61
2022/08/17 04:43:24;;;;;;;9.65;5.43;;;;;;;25.49;45.05;99003.47;4452155;32;33450;-61
2022/08/17 04:46:01;;;;;;;8.23;6.12;;;;;;;25.66;44.47;99004.53;4453590;32;32807;-61
2022/08/17 04:48:32;;;;;;;11.90;6.65;;;;;;;25.78;44.18;99005.44;4450422;32;35312;-60
2022/08/17 04:51:08;;;;;;;;;;;;;;;25.78;44.28;99010.91;4452785;32;34762;-61
2022/08/17 04:53:41;;;;;;;9.60;6.18;;;;;;;25.93;44.40;99009.69;4454069;32;34055;-62
2022/08/17 04:56:10;;;;;;;8.60;6.22;;;;;;;25.99;44.59;99016.97;4451619;32;32979;-61
2022/08/17 04:58:47;;;;;;;13.23;6.00;;;;;;;26.05;44.68;99007.00;4456707;32;34314;-60
2022/08/17 05:01:17;;;;;;;9.40;6.70;;;;;;;26.28;44.26;99012.53;4454307;32;33433;-60
2022/08/17 05:03:52;;;;;;;8.43;5.87;;;;;;;26.36;44.12;99017.69;4456307;32;33815;-61
2022/08/17 05:06:20;;;;;;;10.98;6.35;;;;;;;26.52;43.44;99018.97;4453588;32;35256;-61
2022/08/17 05:08:48;;;;;;;8.25;6.10;;;;;;;26.57;43.57;99021.81;4458042;32;34194;-61
2022/08/17 05:11:16;;;;;;;8.63;6.35;;;;;;;26.68;43.38;99023.75;4463246;32;33375;-61
2022/08/17 05:13:44;;;;;;;9.38;6.60;;;;;;;27.03;42.80;99027.56;4455503;32;34518;-61
2022/08/17 05:16:11;;;;;;;7.40;5.62;;;;;;;26.93;42.95;99031.78;4456282;32;32653;-61
2022/08/17 05:18:39;;;;;;;12.02;7.10;;;;;;;26.95;42.95;99037.00;4459354;32;34238;-62
2022/08/17 05:21:07;;;;;;;11.15;6.93;;;;;;;26.99;43.05;99038.19;4438399;32;33565;-60
2022/08/17 05:23:36;;;;;;;9.15;6.53;;;;;;;26.97;43.29;99029.38;4454194;32;33675;-62
2022/08/17 05:26:12;;;;;;;7.75;5.55;;;;;;;27.16;43.03;99028.22;4451803;32;32897;-61
2022/08/17 05:28:55;;;;;;;8.43;6.80;;;;;;;27.16;43.50;99032.87;4455201;32;35174;-61
2022/08/17 05:31:27;;;;;;;12.95;6.47;;;;;;;27.49;43.12;99031.41;4455859;32;34348;-60
2022/08/17 05:33:55;;;;;;;12.15;7.32;;;;;;;27.74;42.46;99026.44;4462796;32;34814;-61
2022/08/17 05:36:22;;;;;;;9.68;6.32;;;;;;;28.12;41.61;99032.41;4456008;32;35192;-60
2022/08/17 05:39:12;;;;;;;10.20;7.50;;;;;;;28.18;41.48;99029.50;4464923;32;36561;-60
2022/08/17 05:41:46;;;;;;;9.90;7.87;;;;;;;28.08;41.51;99038.41;4459364;32;33688;-60
2022/08/17 05:44:15;;;;;;;8.73;6.57;;;;;;;27.99;41.65;99026.09;4459397;32;33558;-61
2022/08/17 05:46:47;;;;;;;11.15;7.55;;;;;;;27.86;42.08;99031.91;4456220;32;32821;-61
2022/08/17 05:49:18;;;;;;;9.77;6.72;;;;;;;28.18;41.67;99037.75;4441217;32;35347;-61
2022/08/17 05:51:56;;;;;;;8.70;6.60;;;;;;;28.53;41.34;99032.09;4441994;32;33673;-62
2022/08/17 05:54:33;;;;;;;10.48;6.97;;;;;;;28.48;41.22;99032.00;4453225;32;33335;-61
2022/08/17 05:57:22;;;;;;;9.77;7.18;;;;;;;29.04;40.18;99029.34;4444503;32;32526;-61
2022/08/17 06:00:06;;;;;;;9.68;6.55;;;;;;;29.33;39.23;99031.97;4451731;32;33945;-61
2022/08/17 06:03:11;;;;;;;10.02;6.55;;;;;;;29.12;39.74;99034.44;4460806;32;34666;-61
2022/08/17 06:06:00;;;;;;;11.63;6.37;;;;;;;29.21;39.65;99030.19;4453351;32;34165;-61
2022/08/17 06:08:38;;;;;;;13.50;7.57;;;;;;;28.82;40.61;99036.69;4445379;32;34167;-61
2022/08/17 06:11:21;;;;;;;9.90;6.68;;;;;;;29.17;39.88;99034.50;4447328;32;34141;-61
2022/08/17 06:14:08;;;;;;;10.18;6.47;;;;;;;29.31;39.95;99042.41;4454883;32;33470;-61
2022/08/17 06:16:42;;;;;;;9.05;6.85;;;;;;;29.46;39.43;99034.34;4443146;32;33636;-61
2022/08/17 06:19:18;;;;;;;9.07;5.68;;;;;;;29.41;38.99;99040.66;4459438;32;34824;-61
2022/08/17 06:21:49;;;;;;;11.23;6.00;;;;;;;29.36;38.90;99040.56;4448959;32;34169;-62
2022/08/17 06:24:37;;;;;;;11.10;6.43;;;;;;;29.30;39.15;99038.81;4447208;32;32191;-61
2022/08/17 06:27:35;;;;;;;9.23;5.55;;;;;;;29.36;39.33;99037.81;4462639;32;34894;-60
2022/08/17 06:30:20;;;;;;;15.50;6.35;;;;;;;29.55;39.57;99037.50;4455849;32;34932;-63
2022/08/17 06:32:49;;;;;;;11.45;6.00;;;;;;;29.57;39.43;99032.59;4458088;32;33947;-60
2022/08/17 06:35:41;;;;;;;12.27;6.75;;;;;;;29.48;39.45;99037.69;4455603;32;33376;-60
2022/08/17 06:38:32;;;;;;;9.30;6.05;;;;;;;29.29;39.94;99042.69;4447009;32;33835;-60
2022/08/17 06:41:16;;;;;;;21.95;6.85;;;;;;;29.65;39.46;99046.78;4446786;32;33970;-60
2022/08/17 06:43:49;;;;;;;11.02;5.97;;;;;;;29.58;39.19;99054.38;4451415;32;34782;-60
2022/08/17 06:46:20;;;;;;;12.77;6.15;;;;;;;29.46;39.21;99053.66;4438267;32;33743;-60
2022/08/17 06:49:24;;;;;;;10.98;6.53;;;;;;;29.83;39.20;99058.59;4453540;32;33773;-61
2022/08/17 06:51:59;;;;;;;11.65;6.72;;;;;;;30.02;37.91;99059.91;4431194;32;33692;-61
2022/08/17 06:54:47;;;;;;;12.80;6.12;;;;;;;29.69;39.48;99061.69;4443774;32;33784;-61
2022/08/17 06:57:27;;;;;;;7.93;5.45;;;;;;;30.20;38.93;99058.75;4463894;32;35181;-60
2022/08/17 06:59:58;;;;;;;8.10;5.47;;;;;;;30.10;37.85;99061.38;4455174;32;35116;-61
2022/08/17 07:02:35;;;;;;;8.30;5.68;;;;;;;30.07;37.95;99059.97;4450872;32;33238;-60
2022/08/17 07:05:33;;;;;;;7.85;5.70;;;;;;;30.27;37.48;99062.13;4447461;32;33994;-62
2022/08/17 07:08:10;;;;;;;8.38;5.30;;;;;;;30.09;38.88;99062.47;4439956;32;33600;-61
2022/08/17 07:10:43;;;;;;;12.15;6.15;;;;;;;29.99;38.69;99067.88;4438963;32;34794;-61
2022/08/17 07:13:24;;;;;;;10.25;6.43;;;;;;;30.21;38.04;99057.69;4438874;32;32809;-61
2022/08/17 07:15:57;;;;;;;13.57;6.80;;;;;;;30.19;37.50;99062.63;4447672;32;33766;-61
2022/08/17 07:18:29;;;;;;;12.88;6.15;;;;;;;30.45;37.20;99062.87;4446958;32;33635;-60
2022/08/17 07:21:06;;;;;;;39.38;9.88;;;;;;;30.55;36.62;99058.28;4452013;32;34993;-61
2022/08/17 07:24:02;;;;;;;9.70;5.10;;;;;;;30.58;36.41;99052.22;4455662;32;33241;-60
2022/08/17 07:26:30;;;;;;;39.97;10.82;;;;;;;30.22;37.04;99056.56;4442254;32;33907;-61
2022/08/17 07:28:58;;;;;;;10.98;6.05;;;;;;;30.32;37.16;99053.09;4461735;32;33794;-60
2022/08/17 07:33:24;;;;;;;10.27;6.75;;;;;;;31.20;35.41;99058.25;4483106;31;267431;-61
2022/08/17 07:35:52;;;;;;;17.90;7.45;;;;;;;31.20;35.41;99058.25;4493020;31;33905;-60
2022/08/17 07:38:32;;;;;;;11.07;6.03;;;;;;;30.97;35.05;99062.25;4489550;31;33626;-62
2022/08/17 07:41:04;;;;;;;9.27;6.20;;;;;;;30.98;35.01;99056.47;4493068;31;34026;-61
2022/08/17 07:43:40;;;;;;;10.40;6.20;;;;;;;30.86;35.46;99061.34;4487583;31;34453;-61
2022/08/17 07:49:32;;;;;;;9.68;5.82;;;;;;;30.85;35.79;99052.22;4491336;31;32591;-60
2022/08/17 07:52:04;;;;;;;8.95;5.25;;;;;;;31.12;35.51;99054.06;4488674;31;35018;-61
2022/08/17 07:54:52;;;;;;;7.87;5.50;;;;;;;31.23;34.58;99053.03;4492299;31;33358;-61
2022/08/17 07:57:22;;;;;;;8.50;6.20;;;;;;;31.12;34.66;99056.84;4491916;31;34234;-61
2022/08/17 07:59:58;;;;;;;8.73;6.05;;;;;;;31.29;34.72;99056.66;4488275;31;32457;-61
2022/08/17 08:02:41;;;;;;;10.88;5.53;;;;;;;31.47;33.82;99059.03;4492887;31;32876;-60
2022/08/17 08:05:11;;;;;;;8.38;5.32;;;;;;;31.30;35.15;99064.72;4492100;31;32378;-62
2022/08/17 08:07:54;;;;;;;8.05;5.47;;;;;;;31.37;34.53;99064.50;4489231;31;34355;-61
2022/08/17 08:10:37;;;;;;;7.75;5.43;;;;;;;31.17;34.45;99056.03;4481335;32;33378;-62
2022/08/17 08:13:28;;;;;;;8.38;5.57;;;;;;;31.54;33.17;99059.62;4494057;31;33752;-61
2022/08/17 08:16:20;;;;;;;7.60;5.12;;;;;;;31.57;33.08;99060.19;4486584;32;32758;-60
2022/08/17 08:18:50;;;;;;;8.50;5.20;;;;;;;31.66;32.62;99050.28;4484157;32;34680;-60
2022/08/17 08:21:48;;;;;;;10.80;5.82;;;;;;;30.77;34.44;99063.75;4487936;32;33876;-61
2022/08/17 08:24:40;;;;;;;8.30;5.60;;;;;;;31.48;33.99;99055.16;4494330;31;32652;-61
2022/08/17 08:27:25;;;;;;;10.80;5.97;;;;;;;31.70;32.84;99059.69;4484511;32;33721;-61
2022/08/17 08:30:04;;;;;;;7.53;5.18;;;;;;;31.68;32.35;99059.12;4485629;32;33560;-61
2022/08/17 08:33:07;;;;;;;7.70;5.05;;;;;;;31.72;32.78;99058.31;4491696;31;33826;-60
2022/08/17 08:36:22;;;;;;;7.95;5.10;;;;;;;31.45;33.37;99057.63;4484537;32;34011;-60
2022/08/17 08:39:42;;;;;;;7.55;5.47;;;;;;;32.19;32.07;99057.41;4443654;32;33847;-61
2022/08/17 08:42:23;;;;;;;7.47;4.82;;;;;;;32.22;32.00;99051.31;4439919;32;33422;-60
2022/08/17 08:45:14;;;;;;;7.18;4.95;;;;;;;31.69;31.64;99058.88;4484156;32;34667;-61
2022/08/17 08:48:16;;;;;;;10.15;5.68;;;;;;;32.09;30.88;99062.09;4474879;32;33978;-61
2022/08/17 08:51:32;;;;;;;6.82;4.65;;;;;;;32.30;31.43;99052.72;4470823;32;33169;-61
2022/08/17 08:54:20;;;;;;;8.05;4.72;;;;;;;32.50;29.32;99051.97;4477341;32;34959;-61
2022/08/17 08:57:04;;;;;;;6.85;4.22;;;;;;;32.51;30.05;99050.84;4470492;32;33927;-61
2022/08/17 09:00:05;;;;;;;6.60;4.35;;;;;;;31.96;30.23;99058.72;4480696;32;34138;-62
2022/08/17 09:02:39;;;;;;;9.13;4.78;;;;;;;32.44;29.49;99045.56;4480192;32;33872;-61
2022/08/17 09:05:13;;;;;;;5.93;3.67;;;;;;;32.44;28.35;99058.59;4481885;32;33369;-61
2022/08/17 09:07:58;;;;;;;6.28;4.07;;;;;;;32.47;27.46;99050.56;4476556;32;33755;-61
2022/08/17 09:10:30;;;;;;;6.85;4.37;;;;;;;32.64;26.69;99061.38;4471068;32;35079;-61
2022/08/17 09:13:06;;;;;;;7.35;4.45;;;;;;;32.90;27.16;99053.88;4472293;32;34370;-61
2022/08/17 09:15:40;;;;;;;6.45;4.70;;;;;;;32.58;28.09;99051.38;4464990;32;32811;-61
2022/08/17 09:18:24;;;;;;;8.68;4.37;;;;;;;32.55;28.90;99048.34;4470985;32;33635;-61
2022/08/17 09:21:30;;;;;;;6.95;4.72;;;;;;;32.48;29.31;99059.69;4468576;32;33850;-60
2022/08/17 09:24:04;;;;;;;9.25;4.68;;;;;;;32.90;28.44;99066.91;4481029;32;33615;-62
2022/08/17 09:26:38;;;;;;;7.12;4.82;;;;;;;33.60;27.54;99062.41;4484035;32;31558;-62
2022/08/17 09:29:12;;;;;;;8.50;4.75;;;;;;;33.09;28.15;99058.91;4484178;32;33839;-62
2022/08/17 09:31:58;;;;;;;7.87;5.03;;;;;;;33.63;27.79;99058.25;4479025;32;33926;-62
2022/08/17 09:34:37;;;;;;;7.57;4.30;;;;;;;33.79;27.36;99051.53;4482036;32;33572;-62
2022/08/17 09:37:21;;;;;;;7.47;4.32;;;;;;;33.68;27.20;99063.81;4472231;32;33361;-61
2022/08/17 09:40:12;;;;;;;7.30;4.22;;;;;;;33.89;26.90;99055.37;4477184;32;31892;-61
2022/08/17 09:43:01;;;;;;;8.07;4.80;;;;;;;33.81;27.40;99052.09;4479986;32;34407;-62
2022/08/17 09:45:38;;;;;;;7.80;4.60;;;;;;;34.24;26.33;99055.22;4481094;32;34597;-62
2022/08/17 09:48:13;;;;;;;7.12;4.18;;;;;;;34.12;26.56;99049.19;4477557;32;31740;-61
2022/08/17 09:50:51;;;;;;;6.20;4.20;;;;;;;34.76;25.72;99048.19;4482484;32;33663;-61
2022/08/17 09:53:34;;;;;;;7.37;4.28;;;;;;;34.71;25.88;99044.66;4478903;32;34015;-61
2022/08/17 09:56:12;;;;;;;6.70;4.62;;;;;;;34.88;25.08;99047.81;4475898;32;33700;-61
2022/08/17 09:58:49;;;;;;;5.68;3.83;;;;;;;34.60;24.73;99048.63;4478463;32;33154;-61
2022/08/17 10:01:22;;;;;;;5.15;3.50;;;;;;;34.90;24.84;99047.56;4480006;32;32499;-62
2022/08/17 10:04:03;;;;;;;7.15;4.43;;;;;;;35.44;24.32;99047.31;4470482;32;33807;-62
2022/08/17 10:06:40;;;;;;;7.18;4.55;;;;;;;35.48;24.78;99044.75;4468198;32;34824;-64
2022/08/17 10:09:23;;;;;;;5.43;3.87;;;;;;;35.19;24.60;99047.59;4465748;32;34536;-62
2022/08/17 10:12:19;;;;;;;5.70;3.80;;;;;;;35.27;24.54;99051.66;4469918;32;33083;-61
2022/08/17 10:14:56;;;;;;;34.83;7.72;;;;;;;35.80;23.87;99046.91;4466434;31;35035;-61
2022/08/17 10:17:35;;;;;;;6.90;4.07;;;;;;;36.24;22.83;99045.75;4471669;32;35558;-61
2022/08/17 10:20:33;;;;;;;6.75;3.75;;;;;;;36.37;22.51;99046.97;4463651;32;30713;-61
2022/08/17 10:26:14;;;;;;;9.00;4.30;;;;;;;36.70;22.57;99047.06;4468954;32;34415;-62
2022/08/17 10:29:08;;;;;;;7.43;3.53;;;;;;;36.28;22.18;99046.03;4472326;32;33643;-62
2022/08/17 10:31:54;;;;;;;6.93;4.00;;;;;;;35.98;23.04;99039.69;4453532;32;32359;-61
2022/08/17 10:35:06;;;;;;;5.45;3.70;;;;;;;36.48;23.00;99037.34;4468517;32;34952;-62
2022/08/17 10:38:11;;;;;;;6.37;4.10;;;;;;;36.81;22.05;99032.63;4472254;32;35222;-62
2022/08/17 10:40:52;;;;;;;6.47;3.22;;;;;;;36.44;21.92;99043.81;4462808;32;33658;-62
2022/08/17 10:43:29;;;;;;;22.27;5.57;;;;;;;36.22;22.18;99038.88;4463747;31;33230;-62
2022/08/17 10:46:03;;;;;;;8.05;4.22;;;;;;;36.38;22.58;99038.31;4475222;32;32672;-62
2022/08/17 10:49:22;;;;;;;5.35;3.47;;;;;;;36.88;21.74;99040.59;4479695;32;33875;-62
2022/08/17 10:51:55;;;;;;;5.30;3.80;;;;;;;36.79;22.19;99034.06;4472575;32;33196;-62
2022/08/17 10:54:22;;;;;;;8.85;3.70;;;;;;;37.02;20.91;99044.31;4478495;32;33695;-61
2022/08/17 10:56:55;;;;;;;5.65;3.67;;;;;;;37.20;20.80;99033.37;4479734;32;32123;-62
2022/08/17 10:59:35;;;;;;;7.97;5.03;;;;;;;37.00;21.05;99021.47;4478959;32;33802;-61
2022/08/17 11:02:15;;;;;;;23.08;7.32;;;;;;;37.20;21.55;99023.03;4472511;32;32216;-62
2022/08/17 11:05:21;;;;;;;6.07;3.80;;;;;;;36.99;21.98;99024.56;4477354;31;33678;-61
2022/08/17 11:07:57;;;;;;;7.22;4.37;;;;;;;36.65;22.50;99025.66;4474778;32;33718;-62
2022/08/17 11:10:37;;;;;;;7.78;4.30;;;;;;;36.23;23.49;99024.63;4468173;31;33890;-62
2022/08/17 11:13:41;;;;;;;7.53;4.32;;;;;;;36.33;23.54;99029.22;4460555;32;33723;-62
2022/08/17 11:16:34;;;;;;;6.12;4.30;;;;;;;35.76;23.84;99026.34;4476621;31;33316;-61
2022/08/17 11:19:27;;;;;;;9.07;4.72;;;;;;;35.41;24.28;99031.22;4475259;32;32293;-61
2022/08/17 11:22:07;;;;;;;7.65;4.45;;;;;;;35.68;24.15;99025.06;4478631;31;33941;-62
2022/08/17 11:24:39;;;;;;;11.18;4.57;;;;;;;35.36;25.07;99025.69;4480122;32;33494;-62
2022/08/17 11:27:20;;;;;;;11.70;4.30;;;;;;;35.91;24.47;99017.78;4476365;32;31985;-62
2022/08/17 11:30:11;;;;;;;8.75;4.50;;;;;;;35.72;24.41;99019.72;4476585;32;33948;-61
2022/08/17 11:32:59;;;;;;;9.10;4.15;;;;;;;35.68;24.79;99008.34;4466609;32;34067;-61
2022/08/17 11:35:47;;;;;;;6.50;4.22;;;;;;;35.73;24.43;99015.81;4473509;32;32245;-60
2022/08/17 11:38:25;;;;;;;8.32;4.30;;;;;;;36.01;24.14;99007.66;4467208;32;33117;-61
2022/08/17 11:41:13;;;;;;;7.37;3.95;;;;;;;35.80;24.09;99004.34;4465363;32;33924;-61
2022/08/17 11:44:02;;;;;;;6.32;3.90;;;;;;;35.98;23.71;99005.47;4475828;31;34303;-62
2022/08/17 11:52:46;;;;;;;9.30;4.93;;;;;;;35.24;24.16;99006.62;4475258;32;32564;-61
2022/08/17 11:55:35;;;;;;;8.77;3.92;;;;;;;35.65;23.89;98988.66;4474574;31;33975;-61
2022/08/17 11:58:36;;;;;;;7.55;4.12;;;;;;;35.10;24.26;98993.72;4476725;32;34344;-62
2022/08/17 12:01:07;;;;;;;7.45;3.87;;;;;;;35.35;24.18;98993.44;4474322;31;34427;-61
2022/08/17 12:03:37;;;;;;;7.30;3.80;;;;;;;34.66;24.22;98992.72;4478521;32;33507;-61
2022/08/17 12:06:29;;;;;;;8.15;4.37;;;;;;;34.91;23.64;98996.38;4477970;31;34448;-61
2022/08/17 12:09:18;;;;;;;5.60;3.22;;;;;;;35.52;23.04;98989.34;4478790;32;32361;-61
2022/08/17 12:11:52;;;;;;;5.20;3.25;;;;;;;35.31;22.90;98983.19;4474865;31;33076;-62
2022/08/17 12:14:52;;;;;;;5.28;3.53;;;;;;;35.34;22.63;98983.41;4468087;32;32191;-62
2022/08/17 12:17:39;;;;;;;5.10;2.97;;;;;;;35.62;21.89;98978.09;4465105;32;32936;-60
2022/08/17 12:20:28;;;;;;;5.78;2.90;;;;;;;35.68;21.77;98979.69;4474179;32;34698;-62
2022/08/17 12:23:10;;;;;;;5.87;3.47;;;;;;;36.00;21.67;98975.38;4466368;32;32800;-62
2022/08/17 12:25:46;;;;;;;8.18;2.97;;;;;;;35.90;21.28;98966.03;4470849;32;33632;-62
2022/08/17 12:28:25;;;;;;;11.25;3.17;;;;;;;35.53;20.90;98964.03;4472732;32;34203;-61
2022/08/17 12:30:55;;;;;;;7.62;3.17;;;;;;;35.87;21.21;98961.06;4473133;32;34474;-61
2022/08/17 12:33:24;;;;;;;4.82;3.35;;;;;;;35.45;21.66;98965.50;4474281;31;34183;-61
2022/08/17 12:35:57;;;;;;;7.03;2.90;;;;;;;35.41;22.21;98964.44;4469552;32;32319;-63
2022/08/17 12:38:33;;;;;;;8.90;2.93;;;;;;;35.64;21.43;98961.94;4469762;32;35059;-62
2022/08/17 12:41:25;;;;;;;5.95;3.47;;;;;;;36.27;20.85;98964.37;4479885;32;32194;-60
2022/08/17 12:44:00;;;;;;;4.72;2.72;;;;;;;35.88;21.05;98962.69;4472600;31;31730;-61
2022/08/17 12:46:43;;;;;;;5.22;3.00;;;;;;;36.44;20.48;98960.22;4470114;32;32470;-60
2022/08/17 12:49:35;;;;;;;12.13;3.92;;;;;;;36.71;20.15;98957.53;4471981;32;33933;-62